createdAt,value
2022-10-13T00:01:19.561Z,51.67
2022-10-13T00:03:47.532Z,60.28
2022-10-13T00:06:22.300Z,49.95
2022-10-13T00:08:49.301Z,51.97
2022-10-13T00:11:19.359Z,53.15
2022-10-13T00:13:47.366Z,50.15
2022-10-13T00:16:16.968Z,52.65
2022-10-13T00:18:44.251Z,50.70
2022-10-13T00:21:13.992Z,52.25
2022-10-13T00:23:41.690Z,53.45
2022-10-13T00:26:10.969Z,54.00
2022-10-13T00:28:38.472Z,62.28
2022-10-13T00:31:22.090Z,48.88
2022-10-13T00:33:53.061Z,47.40
2022-10-13T00:36:22.691Z,51.25
2022-10-13T00:38:49.656Z,46.50
2022-10-13T00:41:17.885Z,49.13
2022-10-13T00:44:05.114Z,49.88
2022-10-13T00:46:34.621Z,50.15
2022-10-13T00:49:08.390Z,43.63
2022-10-13T00:51:39.450Z,47.35
2022-10-13T00:54:08.085Z,49.03
2022-10-13T00:56:35.911Z,52.03
2022-10-13T00:59:04.350Z,45.25
2022-10-13T01:01:31.853Z,53.40
2022-10-13T01:03:58.995Z,46.55
2022-10-13T01:06:26.031Z,45.00
2022-10-13T01:08:54.745Z,44.38
2022-10-13T01:11:36.174Z,44.85
2022-10-13T01:14:35.922Z,48.95
2022-10-13T01:17:10.712Z,45.47
2022-10-13T01:19:55.034Z,43.53
2022-10-13T01:22:36.435Z,52.72
2022-10-13T01:25:25.421Z,50.95
2022-10-13T01:28:11.190Z,51.95
2022-10-13T01:30:44.251Z,51.10
2022-10-13T01:33:48.673Z,50.47
2022-10-13T01:36:33.986Z,53.38
2022-10-13T01:39:07.590Z,53.42
2022-10-13T01:41:41.707Z,46.78
2022-10-13T01:44:16.371Z,40.30
2022-10-13T01:46:52.271Z,48.40
2022-10-13T01:49:26.991Z,53.90
2022-10-13T01:51:55.711Z,51.22
2022-10-13T01:54:22.789Z,44.28
2022-10-13T01:56:56.475Z,54.88
2022-10-13T01:59:24.662Z,51.22
2022-10-13T02:02:19.619Z,49.05
2022-10-13T02:05:11.603Z,52.95
2022-10-13T02:07:44.191Z,51.45
2022-10-13T02:10:22.953Z,52.83
2022-10-13T02:13:08.647Z,46.10
2022-10-13T02:15:41.334Z,45.13
2022-10-13T02:18:10.075Z,49.15
2022-10-13T02:20:37.470Z,48.35
2022-10-13T02:23:10.821Z,45.47
2022-10-13T02:25:38.274Z,49.90
2022-10-13T02:28:05.790Z,43.92
2022-10-13T02:30:42.760Z,50.67
2022-10-13T02:33:10.490Z,49.38
2022-10-13T02:35:38.040Z,50.72
2022-10-13T02:38:05.407Z,42.45
2022-10-13T02:40:32.341Z,45.80
2022-10-13T02:42:59.374Z,41.92
2022-10-13T02:45:26.577Z,43.55
2022-10-13T02:47:55.542Z,43.80
2022-10-13T02:50:22.583Z,44.17
2022-10-13T02:52:50.638Z,41.67
2022-10-13T02:55:17.872Z,47.83
2022-10-13T02:57:46.152Z,45.97
2022-10-13T03:00:14.352Z,41.83
2022-10-13T03:02:41.361Z,49.22
2022-10-13T03:05:09.090Z,43.60
2022-10-13T03:07:36.254Z,46.42
2022-10-13T03:10:03.959Z,47.97
2022-10-13T03:12:31.062Z,49.20
2022-10-13T03:14:58.045Z,45.10
2022-10-13T03:17:25.902Z,42.05
2022-10-13T03:19:52.946Z,49.60
2022-10-13T03:22:20.235Z,47.83
2022-10-13T03:24:47.430Z,41.10
2022-10-13T03:27:14.394Z,38.92
2022-10-13T03:29:41.537Z,43.72
2022-10-13T03:32:08.658Z,44.67
2022-10-13T03:34:35.631Z,43.72
2022-10-13T03:37:02.621Z,44.53
2022-10-13T03:39:33.894Z,40.55
2022-10-13T03:42:01.066Z,38.30
2022-10-13T03:44:28.091Z,38.10
2022-10-13T03:46:55.153Z,37.45
2022-10-13T03:49:22.062Z,40.15
2022-10-13T03:51:49.019Z,36.17
2022-10-13T03:54:16.055Z,36.90
2022-10-13T03:56:46.664Z,36.40
2022-10-13T03:59:16.706Z,36.35
2022-10-13T04:01:43.947Z,38.95
2022-10-13T04:04:11.709Z,39.30
2022-10-13T04:06:42.142Z,38.53
2022-10-13T04:09:09.677Z,35.03
2022-10-13T04:11:36.901Z,36.97
2022-10-13T04:14:04.210Z,42.13
2022-10-13T04:16:31.757Z,40.60
2022-10-13T04:19:02.950Z,37.35
2022-10-13T04:21:31.343Z,39.30
2022-10-13T04:23:59.386Z,38.50
2022-10-13T04:26:28.412Z,32.13
2022-10-13T04:28:56.716Z,33.72
2022-10-13T04:31:24.209Z,35.33
2022-10-13T04:33:52.108Z,35.60
2022-10-13T04:38:50.434Z,34.10
2022-10-13T04:41:18.804Z,34.20
2022-10-13T04:43:49.824Z,28.70
2022-10-13T04:46:19.642Z,31.77
2022-10-13T04:48:49.223Z,33.80
2022-10-13T04:51:22.074Z,29.52
2022-10-13T04:53:49.184Z,28.33
2022-10-13T04:56:18.172Z,27.23
2022-10-13T04:58:46.208Z,26.60
2022-10-13T05:01:21.165Z,25.90
2022-10-13T05:03:59.020Z,25.23
2022-10-13T05:06:28.122Z,21.00
2022-10-13T05:08:58.015Z,22.92
2022-10-13T05:11:26.779Z,24.17
2022-10-13T05:13:54.159Z,21.75
2022-10-13T05:16:22.481Z,24.33
2022-10-13T05:18:50.791Z,22.05
2022-10-13T05:21:23.335Z,18.85
2022-10-13T05:23:54.175Z,21.38
2022-10-13T05:26:22.753Z,22.35
2022-10-13T05:28:49.876Z,21.13
2022-10-13T05:31:22.265Z,20.67
2022-10-13T05:33:50.083Z,20.58
2022-10-13T05:36:31.373Z,22.60
2022-10-13T05:39:00.239Z,26.02
2022-10-13T05:41:28.438Z,26.58
2022-10-13T05:43:59.575Z,24.85
2022-10-13T05:46:26.824Z,20.67
2022-10-13T05:48:54.027Z,21.92
2022-10-13T05:51:30.505Z,23.60
2022-10-13T05:54:07.010Z,21.92
2022-10-13T05:56:38.615Z,22.40
2022-10-13T05:59:08.715Z,17.20
2022-10-13T06:01:39.030Z,21.40
2022-10-13T06:04:09.772Z,22.58
2022-10-13T06:06:37.794Z,21.90
2022-10-13T06:09:04.768Z,19.35
2022-10-13T06:11:31.818Z,23.77
2022-10-13T06:13:58.785Z,32.60
2022-10-13T06:16:25.999Z,15.98
2022-10-13T06:18:53.129Z,20.70
2022-10-13T06:21:20.167Z,14.45
2022-10-13T06:23:47.102Z,19.38
2022-10-13T06:26:14.166Z,21.23
2022-10-13T06:28:41.084Z,20.70
2022-10-13T06:31:08.239Z,21.90
2022-10-13T06:33:35.295Z,15.82
2022-10-13T06:36:04.272Z,23.63
2022-10-13T06:38:31.719Z,19.20
2022-10-13T06:41:02.818Z,23.08
2022-10-13T06:43:39.654Z,24.45
2022-10-13T06:46:10.922Z,19.10
2022-10-13T06:48:38.259Z,26.60
2022-10-13T06:51:08.248Z,19.85
2022-10-13T06:53:35.589Z,17.35
2022-10-13T06:56:04.560Z,16.90
2022-10-13T06:58:31.758Z,21.98
2022-10-13T07:00:58.759Z,15.45
2022-10-13T07:03:26.167Z,16.85
2022-10-13T07:05:53.439Z,30.58
2022-10-13T07:08:21.098Z,21.67
2022-10-13T07:10:48.960Z,21.13
2022-10-13T07:13:15.936Z,16.17
2022-10-13T07:15:43.010Z,17.58
2022-10-13T07:18:10.022Z,25.27
2022-10-13T07:20:37.120Z,27.88
2022-10-13T07:23:04.158Z,22.80
2022-10-13T07:25:32.298Z,18.10
2022-10-13T07:28:00.120Z,31.00
2022-10-13T07:30:27.698Z,19.33
2022-10-13T07:32:54.810Z,13.32
2022-10-13T07:35:25.851Z,57.03
2022-10-13T07:37:56.658Z,47.13
2022-10-13T07:40:23.708Z,39.47
2022-10-13T07:42:50.838Z,19.27
2022-10-13T07:45:18.139Z,7.82
2022-10-13T07:47:45.218Z,12.77
2022-10-13T07:50:12.332Z,27.70
2022-10-13T07:52:39.536Z,13.40
2022-10-13T07:55:09.229Z,10.27
2022-10-13T07:57:36.380Z,15.20
2022-10-13T08:00:06.229Z,13.13
2022-10-13T08:02:39.598Z,11.00
2022-10-13T08:05:07.548Z,39.90
2022-10-13T08:07:34.478Z,9.98
2022-10-13T08:10:01.534Z,12.10
2022-10-13T08:12:28.460Z,13.80
2022-10-13T08:14:55.750Z,13.02
2022-10-13T08:17:22.951Z,13.18
2022-10-13T08:19:51.732Z,9.00
2022-10-13T08:22:20.734Z,11.98
2022-10-13T08:24:49.908Z,7.18
2022-10-13T08:27:21.565Z,10.23
2022-10-13T08:29:49.112Z,7.88
2022-10-13T08:32:16.707Z,10.27
2022-10-13T08:34:43.838Z,6.40
2022-10-13T08:37:18.218Z,14.77
2022-10-13T08:39:45.598Z,12.05
2022-10-13T08:42:22.800Z,13.38
2022-10-13T08:45:22.224Z,10.85
2022-10-13T08:47:47.339Z,8.30
2022-10-13T08:50:20.638Z,8.00
2022-10-13T08:52:53.298Z,8.75
2022-10-13T08:55:50.920Z,9.18
2022-10-13T08:58:26.408Z,12.45
2022-10-13T09:01:05.659Z,8.15
2022-10-13T09:03:32.759Z,7.18
2022-10-13T09:06:09.738Z,8.25
2022-10-13T09:08:53.398Z,9.20
2022-10-13T09:11:21.278Z,12.98
2022-10-13T09:13:48.458Z,26.65
2022-10-13T09:16:15.609Z,9.70
2022-10-13T09:18:42.588Z,12.18
2022-10-13T09:21:20.336Z,7.65
2022-10-13T09:23:49.847Z,8.70
2022-10-13T09:26:23.770Z,9.18
2022-10-13T09:28:51.952Z,8.65
2022-10-13T09:31:25.090Z,16.88
2022-10-13T09:34:23.819Z,12.52
2022-10-13T09:37:00.807Z,7.93
2022-10-13T09:39:28.870Z,25.77
2022-10-13T09:42:25.890Z,16.48
2022-10-13T09:45:01.826Z,8.20
2022-10-13T09:47:30.507Z,9.30
2022-10-13T09:50:17.002Z,6.68
2022-10-13T09:52:45.718Z,12.77
2022-10-13T09:55:33.207Z,10.60
2022-10-13T09:58:05.978Z,11.18
2022-10-13T10:00:33.119Z,17.92
2022-10-13T10:03:26.439Z,10.48
2022-10-13T10:05:58.267Z,11.57
2022-10-13T10:08:50.967Z,10.70
2022-10-13T10:11:32.558Z,10.95
2022-10-13T10:14:05.708Z,14.05
2022-10-13T10:16:41.170Z,9.35
2022-10-13T10:19:08.069Z,8.73
2022-10-13T10:22:05.758Z,12.38
2022-10-13T10:24:51.960Z,20.90
2022-10-13T10:27:23.988Z,8.25
2022-10-13T10:32:54.241Z,8.80
2022-10-13T10:35:42.654Z,6.38
2022-10-13T10:38:39.727Z,21.45
2022-10-13T10:41:43.861Z,9.98
2022-10-13T10:44:14.349Z,7.13
2022-10-13T10:46:54.359Z,13.55
2022-10-13T10:49:31.511Z,7.43
2022-10-13T10:52:00.470Z,11.80
2022-10-13T10:54:49.522Z,14.15
2022-10-13T10:57:31.888Z,10.00
2022-10-13T11:02:52.794Z,8.60
2022-10-13T11:05:20.429Z,35.92
2022-10-13T11:07:47.428Z,13.60
2022-10-13T11:10:14.436Z,23.05
2022-10-13T11:12:53.543Z,8.50
2022-10-13T11:15:31.257Z,10.25
2022-10-13T11:17:58.348Z,9.20
2022-10-13T11:20:34.409Z,9.07
2022-10-13T11:23:01.420Z,11.35
2022-10-13T11:25:41.252Z,16.25
2022-10-13T11:28:23.533Z,11.88
2022-10-13T11:30:58.484Z,8.15
2022-10-13T11:33:45.757Z,7.63
2022-10-13T11:36:31.722Z,11.52
2022-10-13T11:39:23.299Z,9.20
2022-10-13T11:41:59.409Z,7.57
2022-10-13T11:44:32.559Z,27.40
2022-10-13T11:47:36.334Z,12.35
2022-10-13T11:50:21.841Z,5.72
2022-10-13T11:53:18.761Z,8.20
2022-10-13T11:55:56.672Z,8.25
2022-10-13T11:58:25.720Z,9.00
2022-10-13T12:01:01.020Z,7.75
2022-10-13T12:03:39.668Z,10.18
2022-10-13T12:06:33.568Z,10.20
2022-10-13T12:09:18.612Z,10.20
2022-10-13T12:11:45.838Z,12.57
2022-10-13T12:14:22.358Z,13.75
2022-10-13T12:16:57.267Z,8.30
2022-10-13T12:19:28.075Z,7.78
2022-10-13T12:22:00.292Z,8.52
2022-10-13T12:24:31.118Z,6.65
2022-10-13T12:26:58.929Z,5.32
2022-10-13T12:29:34.868Z,7.53
2022-10-13T12:32:06.052Z,7.53
2022-10-13T12:34:36.038Z,7.55
2022-10-13T12:37:14.359Z,9.00
2022-10-13T12:39:41.499Z,7.88
2022-10-13T12:42:11.529Z,9.18
2022-10-13T12:44:39.738Z,14.43
2022-10-13T12:47:49.446Z,9.77
2022-10-13T12:50:23.869Z,8.57
2022-10-13T12:53:13.940Z,12.70
2022-10-13T12:55:55.299Z,12.68
2022-10-13T12:58:32.161Z,9.68
2022-10-13T13:01:22.012Z,6.53
2022-10-13T13:03:56.412Z,5.53
2022-10-13T13:06:32.668Z,7.13
2022-10-13T13:09:20.074Z,5.03
2022-10-13T13:11:47.869Z,10.30
2022-10-13T13:14:33.318Z,9.07
2022-10-13T13:17:38.825Z,12.70
2022-10-13T13:20:27.349Z,6.35
2022-10-13T13:22:55.269Z,6.80
2022-10-13T13:25:22.634Z,11.73
2022-10-13T13:27:50.009Z,9.85
2022-10-13T13:30:20.868Z,9.07
2022-10-13T13:32:48.721Z,9.70
2022-10-13T13:35:16.140Z,8.30
2022-10-13T13:37:49.021Z,8.07
2022-10-13T13:40:19.218Z,7.65
2022-10-13T13:42:46.340Z,8.02
2022-10-13T13:45:18.641Z,10.70
2022-10-13T13:47:46.250Z,7.07
2022-10-13T13:50:20.679Z,13.10
2022-10-13T13:52:57.457Z,11.02
2022-10-13T13:55:25.896Z,8.05
2022-10-13T13:57:55.017Z,8.20
2022-10-13T14:00:22.878Z,9.35
2022-10-13T14:02:58.458Z,12.75
2022-10-13T14:05:25.822Z,12.32
2022-10-13T14:07:58.171Z,17.67
2022-10-13T14:10:26.461Z,11.57
2022-10-13T14:12:53.928Z,9.40
2022-10-13T14:15:23.400Z,11.23
2022-10-13T14:20:22.072Z,7.90
2022-10-13T14:22:49.273Z,11.75
2022-10-13T14:25:16.781Z,11.27
2022-10-13T14:27:45.832Z,11.50
2022-10-13T14:30:13.841Z,10.82
2022-10-13T14:32:40.977Z,9.77
2022-10-13T14:35:08.507Z,13.20
2022-10-13T14:37:35.851Z,13.07
2022-10-13T14:40:03.789Z,10.77
2022-10-13T14:42:31.117Z,16.65
2022-10-13T14:44:58.377Z,12.25
2022-10-13T14:47:25.598Z,15.75
2022-10-13T14:49:52.731Z,15.30
2022-10-13T14:52:19.664Z,20.10
2022-10-13T14:54:46.790Z,18.27
2022-10-13T14:57:16.492Z,22.00
2022-10-13T14:59:44.258Z,25.25
2022-10-13T15:02:12.236Z,20.17
2022-10-13T15:04:50.782Z,27.05
2022-10-13T15:07:18.957Z,15.25
2022-10-13T15:10:00.575Z,10.73
2022-10-13T15:12:31.810Z,12.10
2022-10-13T15:14:58.788Z,16.75
2022-10-13T15:17:25.808Z,19.65
2022-10-13T15:19:52.754Z,21.55
2022-10-13T15:22:20.343Z,26.10
2022-10-13T15:24:47.480Z,12.80
2022-10-13T15:27:14.516Z,12.43
2022-10-13T15:29:41.499Z,14.80
2022-10-13T15:32:13.626Z,29.80
2022-10-13T15:34:41.525Z,19.98
2022-10-13T15:37:08.464Z,34.03
2022-10-13T15:39:35.542Z,19.65
2022-10-13T15:42:03.024Z,26.00
2022-10-13T15:44:51.018Z,18.40
2022-10-13T15:47:18.292Z,13.73
2022-10-13T15:49:45.296Z,16.80
2022-10-13T15:52:12.518Z,13.18
2022-10-13T15:54:41.011Z,14.10
2022-10-13T15:57:08.184Z,15.57
2022-10-13T15:59:35.273Z,19.05
2022-10-13T16:02:02.213Z,16.10
2022-10-13T16:04:32.295Z,20.80
2022-10-13T16:07:01.945Z,21.42
2022-10-13T16:09:29.032Z,23.38
2022-10-13T16:11:56.032Z,62.20
2022-10-13T16:14:22.926Z,26.95
2022-10-13T16:16:49.997Z,22.42
2022-10-13T16:19:16.866Z,36.50
2022-10-13T16:21:43.913Z,18.33
2022-10-13T16:24:10.824Z,29.00
2022-10-13T16:26:37.846Z,20.60
2022-10-13T16:29:04.705Z,16.10
2022-10-13T16:31:31.670Z,27.77
2022-10-13T16:33:58.732Z,26.73
2022-10-13T16:36:25.664Z,34.60
2022-10-13T16:38:54.871Z,15.82
2022-10-13T16:41:21.965Z,18.08
2022-10-13T16:43:48.943Z,22.10
2022-10-13T16:46:19.578Z,26.02
2022-10-13T16:48:47.569Z,20.08
2022-10-13T16:51:16.843Z,13.27
2022-10-13T16:53:47.820Z,15.40
2022-10-13T16:56:14.991Z,24.00
2022-10-13T16:58:45.430Z,31.98
2022-10-13T17:01:13.190Z,22.20
2022-10-13T17:03:41.216Z,12.00
2022-10-13T17:06:08.554Z,15.80
2022-10-13T17:08:35.720Z,16.45
2022-10-13T17:11:03.521Z,16.30
2022-10-13T17:13:32.366Z,23.23
2022-10-13T17:16:00.128Z,13.40
2022-10-13T17:18:28.097Z,16.02
2022-10-13T17:21:03.073Z,22.35
2022-10-13T17:23:30.576Z,15.93
2022-10-13T17:26:02.542Z,18.52
2022-10-13T17:31:09.626Z,14.70
2022-10-13T17:33:38.150Z,16.88
2022-10-13T17:36:12.370Z,14.70
2022-10-13T17:38:39.545Z,12.80
2022-10-13T17:41:07.903Z,16.05
2022-10-13T17:43:37.868Z,13.70
2022-10-13T17:46:36.319Z,18.02
2022-10-13T17:49:04.635Z,15.30
2022-10-13T17:51:31.802Z,17.92
2022-10-13T17:53:59.768Z,17.88
2022-10-13T17:56:27.078Z,18.98
2022-10-13T17:58:54.750Z,17.20
2022-10-13T18:01:27.321Z,15.60
2022-10-13T18:03:58.568Z,16.02
2022-10-13T18:06:36.751Z,15.00
2022-10-13T18:09:10.851Z,13.52
2022-10-13T18:11:39.138Z,14.35
2022-10-13T18:14:07.329Z,16.00
2022-10-13T18:16:35.205Z,15.93
2022-10-13T18:19:04.514Z,16.40
2022-10-13T18:21:31.734Z,20.02
2022-10-13T18:24:00.471Z,19.10
2022-10-13T18:26:37.680Z,19.25
2022-10-13T18:29:07.953Z,17.58
2022-10-13T18:31:37.312Z,25.15
2022-10-13T18:34:07.751Z,17.25
2022-10-13T18:36:38.769Z,19.92
2022-10-13T18:39:16.909Z,17.10
2022-10-13T18:41:47.125Z,14.90
2022-10-13T18:44:14.718Z,19.23
2022-10-13T18:46:42.661Z,14.25
2022-10-13T18:49:12.977Z,19.73
2022-10-13T18:51:42.378Z,21.23
2022-10-13T18:54:09.565Z,14.93
2022-10-13T18:56:37.212Z,15.00
2022-10-13T18:59:05.776Z,17.13
2022-10-13T19:01:33.969Z,13.73
2022-10-13T19:04:01.431Z,18.70
2022-10-13T19:06:30.535Z,15.07
2022-10-13T19:09:03.719Z,18.63
2022-10-13T19:11:31.867Z,17.08
2022-10-13T19:13:59.623Z,17.35
2022-10-13T19:16:28.906Z,20.70
2022-10-13T19:18:56.519Z,29.95
2022-10-13T19:21:24.668Z,40.42
2022-10-13T19:23:52.102Z,42.72
2022-10-13T19:26:23.760Z,34.70
2022-10-13T19:28:55.853Z,28.52
2022-10-13T20:23:22.595Z,12.45
2022-10-13T20:25:49.671Z,14.35
2022-10-13T20:28:16.593Z,17.48
2022-10-13T20:30:43.726Z,14.68
2022-10-13T20:33:10.695Z,11.85
2022-10-13T20:35:37.726Z,15.13
2022-10-13T20:38:04.695Z,18.30
2022-10-13T20:40:32.154Z,14.18
2022-10-13T20:42:59.167Z,14.90
2022-10-13T20:45:26.134Z,17.75
2022-10-13T20:47:53.033Z,17.38
2022-10-13T20:50:20.985Z,21.30
2022-10-13T20:52:47.894Z,16.85
2022-10-13T20:55:15.426Z,14.57
2022-10-13T20:57:42.413Z,15.88
2022-10-13T21:00:10.253Z,17.77
2022-10-13T21:02:37.482Z,11.07
2022-10-13T21:05:04.782Z,14.52
2022-10-13T21:07:34.660Z,12.35
2022-10-13T21:10:01.659Z,13.23
2022-10-13T21:12:28.741Z,15.63
2022-10-13T21:14:55.729Z,21.25
2022-10-13T21:17:23.110Z,12.85
2022-10-13T21:19:50.636Z,13.32
2022-10-13T21:22:17.569Z,15.00
2022-10-13T21:24:44.694Z,12.95
2022-10-13T21:27:11.825Z,14.48
2022-10-13T21:29:39.057Z,11.48
2022-10-13T21:32:06.142Z,19.52
2022-10-13T21:34:33.239Z,11.50
2022-10-13T21:37:00.289Z,14.10
2022-10-13T21:39:27.430Z,13.73
2022-10-13T21:41:54.436Z,14.73
2022-10-13T21:44:22.271Z,14.07
2022-10-13T21:46:49.210Z,15.07
2022-10-13T21:49:16.334Z,17.52
2022-10-13T21:51:43.354Z,16.35
2022-10-13T21:54:11.980Z,13.40
2022-10-13T21:56:40.015Z,14.82
2022-10-13T21:59:07.910Z,12.98
2022-10-13T22:01:35.088Z,15.23
2022-10-13T22:04:09.344Z,17.40
2022-10-13T22:06:36.451Z,12.82
2022-10-13T22:09:05.153Z,13.38
2022-10-13T22:11:35.107Z,13.90
2022-10-13T22:14:07.379Z,12.15
2022-10-13T22:16:37.315Z,17.65
2022-10-13T22:19:04.672Z,16.85
2022-10-13T22:21:36.582Z,16.13
2022-10-13T22:24:06.283Z,19.77
2022-10-13T22:26:35.604Z,15.30
2022-10-13T22:29:04.301Z,17.27
2022-10-13T22:31:33.456Z,23.17
2022-10-13T22:34:07.705Z,14.45
2022-10-13T22:36:34.799Z,14.85
2022-10-13T22:39:03.481Z,14.07
2022-10-13T22:41:31.955Z,19.30
2022-10-13T22:43:59.548Z,15.90
2022-10-13T22:46:29.318Z,12.80
2022-10-13T22:48:57.457Z,17.90
2022-10-13T22:51:26.253Z,16.83
2022-10-13T22:53:53.934Z,19.23
2022-10-13T22:56:26.235Z,18.60
2022-10-13T22:58:55.492Z,12.82
2022-10-13T23:01:22.910Z,14.68
2022-10-13T23:03:52.424Z,12.25
2022-10-13T23:06:21.332Z,18.83
2022-10-13T23:08:49.497Z,17.10
2022-10-13T23:11:18.204Z,22.02
2022-10-13T23:13:45.953Z,13.25
2022-10-13T23:16:16.382Z,18.23
2022-10-13T23:18:43.553Z,15.32
2022-10-13T23:21:26.263Z,16.98
2022-10-13T23:23:58.353Z,19.80
2022-10-13T23:26:26.082Z,17.75
2022-10-13T23:28:54.903Z,19.15
2022-10-13T23:31:21.965Z,16.33
2022-10-13T23:33:48.993Z,22.85
2022-10-13T23:36:21.205Z,18.85
2022-10-13T23:38:48.881Z,20.35
2022-10-13T23:41:16.756Z,17.48
2022-10-13T23:43:44.302Z,19.52
2022-10-13T23:46:11.572Z,19.27
2022-10-13T23:48:39.686Z,21.38
2022-10-13T23:51:09.097Z,19.50
2022-10-13T23:53:38.297Z,21.92
2022-10-13T23:56:09.293Z,19.55
2022-10-13T23:58:37.556Z,22.80
